Marseliborg — A8VR8 — position and weather

sailwx.info

Track history (hours):
 
Tides and Currents Weather Stations Pressure Air Temp Water Temp Dewpoint Dewpoint Depression Visibility Wind Speed Wind Dir Waves Ship Positions

Marseliborg

Last reported at 2016-May-04 00:33 UTC. Time now 2016-May-06 14:58 UTC.
Position N 37°48' E 015°59'.

Length 138 m; draft 8 m.

Type: Ship. MMSI: 636092036.

Date/timePositionNaut miles runAvg speedWind from/ knotsBaromVisibWave heightAir tempDewpointWater temp
2016-May-04 00:33N 37°48' E 015°59'1414.1
2016-May-03 23:33N 37°52' E 015°42'1312.9
2016-May-03 22:33N 38°04' E 015°34'1312.8
2016-May-03 21:33N 38°16' E 015°40'1312.9
2016-May-03 20:33N 38°26' E 015°31'1513.8
2016-May-03 19:29N 38°38' E 015°19'1213.2
2016-May-03 18:33N 38°43' E 015°05'6913.7
2016-May-03 13:33N 38°32' E 013°38'1414.2
2016-May-03 12:33N 38°29' E 013°20'1413.8
2016-May-03 11:33N 38°27' E 013°03'  
2016-Apr-30 20:31N 36°01' W 005°13'1516.0
2016-Apr-30 19:33N 35°57' W 005°31'21613.5
2016-Apr-30 03:33N 37°17' W 009°41'4314.4
2016-Apr-30 00:33N 37°59' W 009°54'1514.6
2016-Apr-29 23:30N 38°14' W 009°59'1414.7
2016-Apr-29 22:32N 38°28' W 010°04'1514.9
2016-Apr-29 21:32N 38°42' W 010°07'  
2016-Apr-27 15:27N 49°57' W 002°58'10613.4
2016-Apr-27 07:33N 50°26' W 000°19'1615.4
2016-Apr-27 06:31N 50°30' E 000°06'4814.3
2016-Apr-27 03:10N 50°53' E 001°12'812.4
2016-Apr-27 02:33N 50°58' E 001°21'1312.6
2016-Apr-27 01:33N 51°07' E 001°35'1313.2
2016-Apr-27 00:34N 51°17' E 001°49'1515.0
2016-Apr-26 23:34N 51°29' E 002°02'1515.2
2016-Apr-26 22:34N 51°41' E 002°18'5513.6
2016-Apr-26 18:32N 52°23' E 003°14'1212.0
2016-Apr-26 17:33N 52°34' E 003°23'82 9.9
2016-Apr-26 09:11N 53°33' E 004°59'812.0
2016-Apr-26 08:33N 53°35' E 005°11'1212.1
2016-Apr-26 07:33N 53°40' E 005°30'1312.9
2016-Apr-26 06:33N 53°44' E 005°51'1414.0
2016-Apr-26 05:33N 53°48' E 006°13'1514.8
2016-Apr-26 04:34N 53°52' E 006°37'1414.4
2016-Apr-26 03:33N 53°56' E 007°01'1414.1
2016-Apr-26 02:33N 53°59' E 007°24'1313.4
2016-Apr-26 01:33N 54°02' E 007°47'1313.1
2016-Apr-26 00:33N 54°01' E 008°09'1111.2
2016-Apr-25 23:33N 53°59' E 008°28'1110.7
2016-Apr-25 22:33N 53°53' E 008°43'1413.7
2016-Apr-25 21:33N 53°53' E 009°06'2 2.0
2016-Apr-25 20:33N 53°54' E 009°09'6 6.0
2016-Apr-25 19:33N 53°58' E 009°16'6 6.1
2016-Apr-25 18:34N 54°04' E 009°19'21 7.0
2016-Apr-25 15:33N 54°20' E 009°43'7 7.4
2016-Apr-25 14:33N 54°21' E 009°56'5 4.9
2016-Apr-25 13:33N 54°22' E 010°04'2 2.3
2016-Apr-25 12:33N 54°22' E 010°08'1 0.7
2016-Apr-25 11:33N 54°22' E 010°09'1 1.0
2016-Apr-25 10:33N 54°22' E 010°11'8 8.0
2016-Apr-25 09:33N 54°30' E 010°17'1212.1
2016-Apr-25 08:33N 54°35' E 010°36'1413.7
2016-Apr-25 07:33N 54°36' E 010°59'1312.8
2016-Apr-25 06:34N 54°34' E 011°21'1514.6
2016-Apr-25 05:33N 54°27' E 011°44'1414.2
2016-Apr-25 04:34N 54°27' E 012°08'1413.6
2016-Apr-25 03:33N 54°39' E 012°20'6311.6
2016-Apr-24 22:06N 54°18' E 014°03'813.2
2016-Apr-24 21:30N 54°12' E 014°12'1213.0
2016-Apr-24 20:33N 54°00' E 014°16'6 5.7
2016-Apr-24 19:33N 53°55' E 014°17'0 0.0
2016-Apr-24 18:33N 53°55' E 014°17'0 0.0
2016-Apr-24 17:33N 53°55' E 014°17'0 0.0
2016-Apr-24 16:33N 53°55' E 014°17'0 0.0
2016-Apr-24 15:33N 53°55' E 014°17'0 0.0
2016-Apr-24 14:33N 53°55' E 014°17'0 0.0
2016-Apr-24 13:33N 53°55' E 014°17'0 0.0
2016-Apr-24 12:33N 53°55' E 014°17'0 0.0
2016-Apr-24 11:33N 53°55' E 014°17'0 0.0
2016-Apr-24 10:33N 53°55' E 014°17'0 0.0
2016-Apr-24 09:33N 53°55' E 014°17'0 0.0
2016-Apr-24 08:33N 53°55' E 014°17'0 0.0
2016-Apr-24 07:33N 53°55' E 014°17'0 0.0
2016-Apr-24 06:33N 53°55' E 014°17'0 0.0
2016-Apr-24 05:33N 53°55' E 014°17'0 0.0
2016-Apr-24 04:33N 53°55' E 014°17'0 0.0
2016-Apr-24 03:33N 53°55' E 014°17'0 0.0
2016-Apr-24 02:33N 53°55' E 014°17'0 0.0
2016-Apr-24 01:33N 53°55' E 014°17'  
Track history (hours):
 
Tides and Currents Weather Stations Pressure Air Temp Water Temp Dewpoint Dewpoint Depression Visibility Wind Speed Wind Dir Waves Ship Positions

Marseliborg

Last reported at 2016-May-04 00:33 UTC. Time now 2016-May-06 14:58 UTC.
Position N 37°48' E 015°59'.

Length 138 m; draft 8 m.

Type: Ship. MMSI: 636092036.

Date/timePositionNaut miles runAvg speedWind from/ knotsBaromVisibWave heightAir tempDewpointWater temp
2016-May-04 00:33N 37°48' E 015°59'1414.1
2016-May-03 23:33N 37°52' E 015°42'1312.9
2016-May-03 22:33N 38°04' E 015°34'1312.8
2016-May-03 21:33N 38°16' E 015°40'1312.9
2016-May-03 20:33N 38°26' E 015°31'1513.8
2016-May-03 19:29N 38°38' E 015°19'1213.2
2016-May-03 18:33N 38°43' E 015°05'6913.7
2016-May-03 13:33N 38°32' E 013°38'1414.2
2016-May-03 12:33N 38°29' E 013°20'1413.8
2016-May-03 11:33N 38°27' E 013°03'  
2016-Apr-30 20:31N 36°01' W 005°13'1516.0
2016-Apr-30 19:33N 35°57' W 005°31'21613.5
2016-Apr-30 03:33N 37°17' W 009°41'4314.4
2016-Apr-30 00:33N 37°59' W 009°54'1514.6
2016-Apr-29 23:30N 38°14' W 009°59'1414.7
2016-Apr-29 22:32N 38°28' W 010°04'1514.9
2016-Apr-29 21:32N 38°42' W 010°07'  
2016-Apr-27 15:27N 49°57' W 002°58'10613.4
2016-Apr-27 07:33N 50°26' W 000°19'1615.4
2016-Apr-27 06:31N 50°30' E 000°06'4814.3
2016-Apr-27 03:10N 50°53' E 001°12'812.4
2016-Apr-27 02:33N 50°58' E 001°21'1312.6
2016-Apr-27 01:33N 51°07' E 001°35'1313.2
2016-Apr-27 00:34N 51°17' E 001°49'1515.0
2016-Apr-26 23:34N 51°29' E 002°02'1515.2
2016-Apr-26 22:34N 51°41' E 002°18'5513.6
2016-Apr-26 18:32N 52°23' E 003°14'1212.0
2016-Apr-26 17:33N 52°34' E 003°23'82 9.9
2016-Apr-26 09:11N 53°33' E 004°59'812.0
2016-Apr-26 08:33N 53°35' E 005°11'1212.1
2016-Apr-26 07:33N 53°40' E 005°30'1312.9
2016-Apr-26 06:33N 53°44' E 005°51'1414.0
2016-Apr-26 05:33N 53°48' E 006°13'1514.8
2016-Apr-26 04:34N 53°52' E 006°37'1414.4
2016-Apr-26 03:33N 53°56' E 007°01'1414.1
2016-Apr-26 02:33N 53°59' E 007°24'1313.4
2016-Apr-26 01:33N 54°02' E 007°47'1313.1
2016-Apr-26 00:33N 54°01' E 008°09'1111.2
2016-Apr-25 23:33N 53°59' E 008°28'1110.7
2016-Apr-25 22:33N 53°53' E 008°43'1413.7
2016-Apr-25 21:33N 53°53' E 009°06'2 2.0
2016-Apr-25 20:33N 53°54' E 009°09'6 6.0
2016-Apr-25 19:33N 53°58' E 009°16'6 6.1
2016-Apr-25 18:34N 54°04' E 009°19'21 7.0
2016-Apr-25 15:33N 54°20' E 009°43'7 7.4
2016-Apr-25 14:33N 54°21' E 009°56'5 4.9
2016-Apr-25 13:33N 54°22' E 010°04'2 2.3
2016-Apr-25 12:33N 54°22' E 010°08'1 0.7
2016-Apr-25 11:33N 54°22' E 010°09'1 1.0
2016-Apr-25 10:33N 54°22' E 010°11'8 8.0
2016-Apr-25 09:33N 54°30' E 010°17'1212.1
2016-Apr-25 08:33N 54°35' E 010°36'1413.7
2016-Apr-25 07:33N 54°36' E 010°59'1312.8
2016-Apr-25 06:34N 54°34' E 011°21'1514.6
2016-Apr-25 05:33N 54°27' E 011°44'1414.2
2016-Apr-25 04:34N 54°27' E 012°08'1413.6
2016-Apr-25 03:33N 54°39' E 012°20'6311.6
2016-Apr-24 22:06N 54°18' E 014°03'813.2
2016-Apr-24 21:30N 54°12' E 014°12'1213.0
2016-Apr-24 20:33N 54°00' E 014°16'6 5.7
2016-Apr-24 19:33N 53°55' E 014°17'0 0.0
2016-Apr-24 18:33N 53°55' E 014°17'0 0.0
2016-Apr-24 17:33N 53°55' E 014°17'0 0.0
2016-Apr-24 16:33N 53°55' E 014°17'0 0.0
2016-Apr-24 15:33N 53°55' E 014°17'0 0.0
2016-Apr-24 14:33N 53°55' E 014°17'0 0.0
2016-Apr-24 13:33N 53°55' E 014°17'0 0.0
2016-Apr-24 12:33N 53°55' E 014°17'0 0.0
2016-Apr-24 11:33N 53°55' E 014°17'0 0.0
2016-Apr-24 10:33N 53°55' E 014°17'0 0.0
2016-Apr-24 09:33N 53°55' E 014°17'0 0.0
2016-Apr-24 08:33N 53°55' E 014°17'0 0.0
2016-Apr-24 07:33N 53°55' E 014°17'0 0.0
2016-Apr-24 06:33N 53°55' E 014°17'0 0.0
2016-Apr-24 05:33N 53°55' E 014°17'0 0.0
2016-Apr-24 04:33N 53°55' E 014°17'0 0.0
2016-Apr-24 03:33N 53°55' E 014°17'0 0.0
2016-Apr-24 02:33N 53°55' E 014°17'0 0.0
2016-Apr-24 01:33N 53°55' E 014°17'  

Dump ship's entire track history